Station Historical Data
Daily Summary for September 13, 2017 Units:  Metric    English   Both
« Previous Day
Next Day »
Daily Weekly Monthly Yearly Custom
  High: Low: Average:
Temperature: 27 °C 11.9 °C 19.2 °C
Dew Point: 18.4 °C 10.2 °C 14.4 °C
Humidity: 90% 55% 75%
Wind Speed: 11.3km/h 0km/h 1.8km/h
Wind Gust: 16.1km/h - -
Wind- - SW
Pressure: 1012.1 hPa 1007.7 hPa -
Precipitation: 0 mm    
Historical Graphs
 
 
Tabular Data for September 13, 2017
Time Temperature Dew Point Pressure Wind Wind Speed Wind Gust Humidity Rainfall Rate (Hourly)
00:04 15.9 °C 13.2 °C 1012.1 hPa Calm     84% 0 mm
00:09 15.7 °C 13 °C 1012.1 hPa Calm     84% 0 mm
00:15 15.4 °C 12.9 °C 1012.1 hPa Calm     85% 0 mm
00:24 15.3 °C 12.9 °C 1012.1 hPa Calm     86% 0 mm
00:29 15.3 °C 12.9 °C 1012.1 hPa Calm     86% 0 mm
00:34 15.2 °C 13 °C 1012.1 hPa Calm     87% 0 mm
00:39 15.2 °C 13 °C 1012.1 hPa Calm     87% 0 mm
00:44 15.1 °C 12.9 °C 1012.1 hPa Calm     87% 0 mm
00:49 15.1 °C 12.9 °C 1012.1 hPa Calm     87% 0 mm
00:54 14.9 °C 12.7 °C 1012.1 hPa Calm     87% 0 mm
00:59 14.8 °C 12.9 °C 1012.1 hPa Calm     88% 0 mm
01:04 14.7 °C 12.7 °C 1012.1 hPa Calm     88% 0 mm
01:09 14.7 °C 12.8 °C 1012.1 hPa Calm     88% 0 mm
01:14 14.7 °C 12.8 °C 1012.1 hPa Calm   3.2 km/h 88% 0 mm
01:19 14.7 °C 12.7 °C 1012.1 hPa Calm     88% 0 mm
01:24 14.6 °C 12.7 °C 1012.1 hPa Calm     88% 0 mm
01:29 14.6 °C 12.6 °C 1012.1 hPa Calm     88% 0 mm
01:34 14.5 °C 12.6 °C 1012.1 hPa Calm     88% 0 mm
01:39 14.5 °C 12.6 °C 1011.7 hPa Calm   3.2 km/h 88% 0 mm
01:44 14.4 °C 12.5 °C 1012.1 hPa Calm     88% 0 mm
01:49 14.4 °C 12.4 °C 1012.1 hPa Calm   4.8 km/h 88% 0 mm
01:54 14.3 °C 12.3 °C 1011.7 hPa Calm   4.8 km/h 88% 0 mm
01:59 14.1 °C 12.2 °C 1011.7 hPa Calm   3.2 km/h 88% 0 mm
02:04 14 °C 12.1 °C 1011.7 hPa Calm   1.6 km/h 88% 0 mm
02:09 13.9 °C 12 °C 1011.7 hPa Calm     88% 0 mm
02:14 13.8 °C 11.8 °C 1011.7 hPa Calm   1.6 km/h 88% 0 mm
02:19 13.7 °C 11.8 °C 1011.7 hPa Calm   1.6 km/h 88% 0 mm
02:24 13.7 °C 11.7 °C 1011.7 hPa Calm     88% 0 mm
02:29 13.5 °C 11.6 °C 1011.7 hPa Calm     88% 0 mm
02:34 13.3 °C 11.4 °C 1011.7 hPa Calm     88% 0 mm
02:39 13.3 °C 11.3 °C 1011.7 hPa Calm     88% 0 mm
02:44 13.2 °C 11.2 °C 1011.7 hPa Calm     88% 0 mm
02:49 13.1 °C 11.2 °C 1011.7 hPa Calm     88% 0 mm
02:54 13 °C 11.1 °C 1011.7 hPa Calm     88% 0 mm
02:59 12.9 °C 11.2 °C 1011.7 hPa Calm     89% 0 mm
03:04 12.9 °C 11.1 °C 1011.7 hPa Calm     89% 0 mm
03:09 12.8 °C 11.1 °C 1011.7 hPa Calm     89% 0 mm
03:14 12.7 °C 10.9 °C 1011.7 hPa Calm     89% 0 mm
03:19 12.6 °C 10.8 °C 1011.4 hPa Calm     89% 0 mm
03:24 12.6 °C 10.8 °C 1011.4 hPa Calm     89% 0 mm
03:29 12.4 °C 10.7 °C 1011.4 hPa Calm     89% 0 mm
03:34 12.4 °C 10.6 °C 1011.4 hPa Calm     89% 0 mm
03:39 12.3 °C 10.7 °C 1011.4 hPa Calm     90% 0 mm
03:44 12.3 °C 10.7 °C 1011.4 hPa Calm     90% 0 mm
03:49 12.2 °C 10.6 °C 1011.4 hPa Calm     90% 0 mm
03:54 12.2 °C 10.6 °C 1011.1 hPa Calm     90% 0 mm
03:59 12.2 °C 10.6 °C 1011.1 hPa Calm     90% 0 mm
04:04 12.3 °C 10.7 °C 1011.1 hPa Calm     90% 0 mm
04:09 12.3 °C 10.7 °C 1011.1 hPa Calm     90% 0 mm
04:14 12.3 °C 10.7 °C 1011.1 hPa Calm     90% 0 mm
04:19 12.2 °C 10.6 °C 1011.1 hPa Calm     90% 0 mm
04:24 12.1 °C 10.5 °C 1010.7 hPa Calm     90% 0 mm
04:29 12.2 °C 10.6 °C 1011.1 hPa Calm     90% 0 mm
04:34 12.1 °C 10.5 °C 1011.1 hPa Calm     90% 0 mm
04:39 12 °C 10.2 °C 1011.1 hPa Calm     89% 0 mm
04:44 11.9 °C 10.3 °C 1010.7 hPa Calm     90% 0 mm
04:49 11.9 °C 10.3 °C 1011.1 hPa Calm     90% 0 mm
04:54 12 °C 10.4 °C 1011.1 hPa Calm     90% 0 mm
04:59 12 °C 10.4 °C 1011.1 hPa Calm     90% 0 mm
05:04 12.1 °C 10.4 °C 1011.1 hPa Calm     90% 0 mm
05:09 12.1 °C 10.5 °C 1011.1 hPa Calm     90% 0 mm
05:14 12.1 °C 10.3 °C 1011.1 hPa Calm     89% 0 mm
05:19 12.2 °C 10.4 °C 1011.1 hPa Calm     89% 0 mm
05:24 12.2 °C 10.4 °C 1011.1 hPa Calm     89% 0 mm
05:29 12.2 °C 10.4 °C 1011.1 hPa Calm     89% 0 mm
05:34 12.2 °C 10.4 °C 1011.1 hPa Calm     89% 0 mm
05:39 12.2 °C 10.4 °C 1011.1 hPa Calm     89% 0 mm
05:44 12.1 °C 10.3 °C 1011.1 hPa Calm     89% 0 mm
05:49 12.2 °C 10.4 °C 1011.1 hPa Calm     89% 0 mm
05:54 12.1 °C 10.3 °C 1011.1 hPa Calm     89% 0 mm
05:59 12.1 °C 10.3 °C 1011.1 hPa Calm     89% 0 mm
06:04 12.1 °C 10.3 °C 1011.1 hPa Calm     89% 0 mm
06:09 12.1 °C 10.3 °C 1011.1 hPa Calm     89% 0 mm
06:14 12.1 °C 10.3 °C 1011.1 hPa Calm     89% 0 mm
06:19 12.2 °C 10.4 °C 1011.1 hPa Calm     89% 0 mm
06:24 12.3 °C 10.6 °C 1011.1 hPa Calm     89% 0 mm
06:29 12.4 °C 10.7 °C 1011.1 hPa Calm     89% 0 mm
06:34 12.5 °C 10.7 °C 1011.1 hPa Calm   3.2 km/h 89% 0 mm
06:39 12.7 °C 10.7 °C 1011.1 hPa Calm   3.2 km/h 88% 0 mm
06:44 12.8 °C 10.8 °C 1011.1 hPa Calm   1.6 km/h 88% 0 mm
06:49 12.9 °C 10.9 °C 1011.1 hPa Calm   1.6 km/h 88% 0 mm
06:54 13 °C 10.9 °C 1011.1 hPa Calm     87% 0 mm
06:59 13.1 °C 11 °C 1011.1 hPa Calm     87% 0 mm
07:04 13.2 °C 11.1 °C 1011.1 hPa Calm     87% 0 mm
07:09 13.3 °C 11.2 °C 1011.1 hPa Calm     87% 0 mm
07:14 13.4 °C 11.2 °C 1011.1 hPa Calm     86% 0 mm
07:19 13.6 °C 11.3 °C 1011.1 hPa Calm     86% 0 mm
07:24 13.7 °C 11.4 °C 1011.1 hPa Calm     86% 0 mm
07:29 13.8 °C 11.3 °C 1011.1 hPa Calm     85% 0 mm
07:34 13.9 °C 11.4 °C 1011.1 hPa Calm     85% 0 mm
07:39 13.9 °C 11.4 °C 1011.1 hPa Calm     85% 0 mm
07:44 14.1 °C 11.6 °C 1011.4 hPa Calm     85% 0 mm
07:49 14.1 °C 11.4 °C 1011.4 hPa Calm     84% 0 mm
07:54 14.2 °C 11.6 °C 1011.4 hPa Calm     84% 0 mm
07:59 14.3 °C 11.7 °C 1011.4 hPa Calm     84% 0 mm
08:04 14.5 °C 11.8 °C 1011.4 hPa Calm     84% 0 mm
08:09 14.6 °C 11.8 °C 1011.4 hPa Calm     83% 0 mm
08:14 14.8 °C 11.9 °C 1011.4 hPa Calm     83% 0 mm
08:19 14.9 °C 11.9 °C 1011.4 hPa Calm     82% 0 mm
08:24 15.2 °C 12.3 °C 1011.4 hPa Calm     83% 0 mm
08:29 15.4 °C 12.4 °C 1011.4 hPa Calm     82% 0 mm
08:34 15.7 °C 12.4 °C 1011.4 hPa Calm     81% 0 mm
08:39 15.9 °C 12.7 °C 1011.1 hPa Calm     81% 0 mm
08:44 16.6 °C 13.2 °C 1011.1 hPa Calm     80% 0 mm
08:49 17.1 °C 13.2 °C 1011.1 hPa Calm     78% 0 mm
08:54 17.7 °C 13.6 °C 1011.1 hPa Calm     77% 0 mm
08:59 17.7 °C 13.4 °C 1011.1 hPa Calm     76% 0 mm
09:04 17.8 °C 13.5 °C 1011.1 hPa Calm     76% 0 mm
09:09 18.4 °C 13.7 °C 1011.1 hPa ESE 3.2 km/h 3.2 km/h 74% 0 mm
09:14 18.4 °C 13.7 °C 1011.1 hPa SE 1.6 km/h 4.8 km/h 74% 0 mm
09:19 18.6 °C 13.9 °C 1011.1 hPa ESE 1.6 km/h 4.8 km/h 74% 0 mm
09:24 19.3 °C 14.1 °C 1011.1 hPa Calm   4.8 km/h 72% 0 mm
09:29 19.5 °C 14.1 °C 1011.1 hPa Calm   4.8 km/h 71% 0 mm
09:34 19.7 °C 14.1 °C 1011.1 hPa South 3.2 km/h 6.4 km/h 70% 0 mm
09:39 20.1 °C 14.4 °C 1011.1 hPa South 3.2 km/h 8 km/h 70% 0 mm
09:44 19.8 °C 14.4 °C 1011.1 hPa Calm   8 km/h 71% 0 mm
09:49 19.9 °C 14.5 °C 1011.1 hPa SW 4.8 km/h 6.4 km/h 71% 0 mm
09:54 19.8 °C 14.2 °C 1011.1 hPa Calm   8 km/h 70% 0 mm
09:59 19.8 °C 14.6 °C 1011.1 hPa SSW 3.2 km/h 4.8 km/h 72% 0 mm
10:04 19.7 °C 14.3 °C 1011.1 hPa SSW 3.2 km/h 6.4 km/h 71% 0 mm
10:09 19.7 °C 14.1 °C 1011.1 hPa South 3.2 km/h 8 km/h 70% 0 mm
10:14 19.8 °C 14.4 °C 1011.1 hPa SSW 3.2 km/h 6.4 km/h 71% 0 mm
10:19 20 °C 14.3 °C 1011.1 hPa South 1.6 km/h 6.4 km/h 70% 0 mm
10:24 20 °C 14.3 °C 1011.1 hPa South 3.2 km/h 6.4 km/h 70% 0 mm
10:29 20 °C 14.3 °C 1011.1 hPa South 1.6 km/h 6.4 km/h 70% 0 mm
10:34 20.2 °C 14.6 °C 1010.7 hPa SSW 3.2 km/h 6.4 km/h 70% 0 mm
10:39 20.6 °C 14.9 °C 1010.7 hPa SSW 3.2 km/h 6.4 km/h 70% 0 mm
10:44 20.7 °C 14.8 °C 1010.7 hPa SSW 1.6 km/h 6.4 km/h 69% 0 mm
10:49 20.8 °C 14.9 °C 1010.7 hPa WSW 3.2 km/h 8 km/h 69% 0 mm
10:54 20.9 °C 15.2 °C 1010.7 hPa SW 1.6 km/h 8 km/h 70% 0 mm
10:59 21.2 °C 14.6 °C 1010.7 hPa Calm   3.2 km/h 66% 0 mm
11:04 21.6 °C 14.9 °C 1010.4 hPa Calm   4.8 km/h 66% 0 mm
11:09 21.6 °C 14.7 °C 1010.4 hPa Calm   3.2 km/h 65% 0 mm
11:14 21.8 °C 15.2 °C 1010.4 hPa WSW 1.6 km/h 3.2 km/h 66% 0 mm
11:19 21.7 °C 15.1 °C 1010.4 hPa Calm   6.4 km/h 66% 0 mm
11:24 22.2 °C 15.3 °C 1010.4 hPa South 3.2 km/h 4.8 km/h 65% 0 mm
11:29 22.8 °C 16.2 °C 1010.4 hPa South 1.6 km/h 4.8 km/h 66% 0 mm
11:34 22.9 °C 15.4 °C 1010 hPa SW 1.6 km/h 8 km/h 63% 0 mm
11:39 22.6 °C 15.2 °C 1010 hPa SW 3.2 km/h 8 km/h 63% 0 mm
11:44 22.9 °C 15 °C 1010 hPa WSW 4.8 km/h 9.7 km/h 61% 0 mm
11:49 23.1 °C 15.2 °C 1010 hPa WSW 4.8 km/h 9.7 km/h 61% 0 mm
11:54 23.3 °C 15.4 °C 1010.4 hPa WSW 3.2 km/h 11.3 km/h 61% 0 mm
11:59 23.2 °C 15.2 °C 1010 hPa SW 4.8 km/h 11.3 km/h 61% 0 mm
12:04 23.3 °C 15.7 °C 1010 hPa SW 3.2 km/h 8 km/h 62% 0 mm
12:09 23.2 °C 15 °C 1010 hPa West 1.6 km/h 9.7 km/h 60% 0 mm
12:14 23.2 °C 15.6 °C 1010 hPa WSW 3.2 km/h 8 km/h 62% 0 mm
12:19 23.5 °C 15.6 °C 1010 hPa SSW 3.2 km/h 11.3 km/h 61% 0 mm
12:24 23.7 °C 15.2 °C 1010 hPa SSW 8 km/h 9.7 km/h 59% 0 mm
12:29 23.9 °C 15.7 °C 1010 hPa SW 3.2 km/h 9.7 km/h 60% 0 mm
12:34 24.1 °C 15.8 °C 1010 hPa SSW 3.2 km/h 9.7 km/h 60% 0 mm
12:39 24.5 °C 15.7 °C 1010 hPa SSW 1.6 km/h 6.4 km/h 58% 0 mm
12:44 24.7 °C 16.7 °C 1009.7 hPa SSW 3.2 km/h 8 km/h 61% 0 mm
12:49 24.6 °C 16.6 °C 1009.7 hPa SW 3.2 km/h 9.7 km/h 61% 0 mm
12:54 25.1 °C 15.9 °C 1009.7 hPa SSW 3.2 km/h 12.9 km/h 57% 0 mm
12:59 24.8 °C 16 °C 1009.7 hPa West 6.4 km/h 9.7 km/h 58% 0 mm
13:09 24.9 °C 15.6 °C 1009.7 hPa South 3.2 km/h 6.4 km/h 56% 0 mm
13:14 25.2 °C 16.3 °C 1009.4 hPa West 6.4 km/h 6.4 km/h 58% 0 mm
13:19 25.4 °C 16 °C 1009.4 hPa West 4.8 km/h 9.7 km/h 56% 0 mm
13:24 25.3 °C 15.7 °C 1009.4 hPa WSW 4.8 km/h 8 km/h 55% 0 mm
13:29 25.4 °C 16 °C 1009 hPa WNW 3.2 km/h 8 km/h 56% 0 mm
13:34 25.8 °C 16.9 °C 1009 hPa West 4.8 km/h 11.3 km/h 58% 0 mm
13:39 25.8 °C 16.1 °C 1009 hPa WSW 4.8 km/h 11.3 km/h 55% 0 mm
13:49 25.8 °C 16.9 °C 1009 hPa WSW 4.8 km/h 9.7 km/h 58% 0 mm
13:54 26.1 °C 16.4 °C 1009 hPa SW 4.8 km/h 9.7 km/h 55% 0 mm
13:59 26.2 °C 16.7 °C 1009 hPa SW 6.4 km/h 11.3 km/h 56% 0 mm
14:04 26.2 °C 16.7 °C 1009 hPa West 6.4 km/h 14.5 km/h 56% 0 mm
14:09 26 °C 16.6 °C 1009 hPa WSW 8 km/h 16.1 km/h 56% 0 mm
14:14 26.1 °C 17.2 °C 1008.7 hPa West 3.2 km/h 12.9 km/h 58% 0 mm
14:19 26.2 °C 17.1 °C 1008.7 hPa West 6.4 km/h 11.3 km/h 57% 0 mm
14:24 25.9 °C 16.8 °C 1008.7 hPa WSW 6.4 km/h 12.9 km/h 57% 0 mm
14:29 25.6 °C 16.4 °C 1008.7 hPa West 11.3 km/h 14.5 km/h 57% 0 mm
14:34 25.9 °C 16.5 °C 1008.7 hPa West 6.4 km/h 14.5 km/h 56% 0 mm
14:39 26.1 °C 17.4 °C 1008.7 hPa WSW 6.4 km/h 12.9 km/h 59% 0 mm
14:44 26.2 °C 17 °C 1008.4 hPa WSW 6.4 km/h 12.9 km/h 57% 0 mm
14:49 26.2 °C 17.3 °C 1008.4 hPa WSW 4.8 km/h 11.3 km/h 58% 0 mm
14:54 26.4 °C 17.5 °C 1008.4 hPa West 6.4 km/h 9.7 km/h 58% 0 mm
14:59 26.7 °C 17.4 °C 1008.4 hPa WSW 6.4 km/h 12.9 km/h 57% 0 mm
15:04 26.6 °C 17.6 °C 1008.4 hPa WSW 6.4 km/h 12.9 km/h 58% 0 mm
15:09 26.8 °C 17.3 °C 1008.4 hPa WSW 6.4 km/h 11.3 km/h 56% 0 mm
15:14 26.5 °C 17.3 °C 1008.4 hPa WSW 4.8 km/h 14.5 km/h 57% 0 mm
15:19 26.5 °C 17.6 °C 1008.4 hPa WSW 4.8 km/h 14.5 km/h 58% 0 mm
15:24 26.9 °C 18.2 °C 1008.4 hPa SW 9.7 km/h 9.7 km/h 59% 0 mm
15:29 27 °C 18.1 °C 1008 hPa SW 8 km/h 11.3 km/h 58% 0 mm
15:34 26.6 °C 17.3 °C 1008 hPa WSW 6.4 km/h 12.9 km/h 57% 0 mm
15:39 26.6 °C 17.6 °C 1008 hPa WSW 6.4 km/h 12.9 km/h 58% 0 mm
15:44 26.8 °C 18.4 °C 1008 hPa SW 4.8 km/h 12.9 km/h 60% 0 mm
15:49 26.8 °C 17.8 °C 1008 hPa WSW 6.4 km/h 12.9 km/h 58% 0 mm
15:54 26.8 °C 17.6 °C 1008 hPa SW 6.4 km/h 16.1 km/h 57% 0 mm
15:59 26.6 °C 17.7 °C 1008 hPa SW 4.8 km/h 16.1 km/h 58% 0 mm
16:04 26.9 °C 18.2 °C 1008 hPa WSW 6.4 km/h 12.9 km/h 59% 0 mm
16:09 26.4 °C 17.5 °C 1008 hPa WSW 6.4 km/h 12.9 km/h 58% 0 mm
16:14 25.6 °C 17 °C 1008.4 hPa WSW 6.4 km/h 12.9 km/h 59% 0 mm
16:19 25.3 °C 17.3 °C 1008.4 hPa WSW 6.4 km/h 12.9 km/h 61% 0 mm
16:24 25 °C 16.9 °C 1008.4 hPa WSW 6.4 km/h 11.3 km/h 61% 0 mm
16:29 25.3 °C 17.5 °C 1008 hPa WSW 6.4 km/h 11.3 km/h 62% 0 mm
16:34 24.8 °C 17.1 °C 1008 hPa West 3.2 km/h 8 km/h 62% 0 mm
16:39 25.2 °C 17.4 °C 1008 hPa West 4.8 km/h 8 km/h 62% 0 mm
16:44 25.4 °C 17.6 °C 1007.7 hPa West 4.8 km/h 9.7 km/h 62% 0 mm
16:49 25.6 °C 17.8 °C 1007.7 hPa West 1.6 km/h 6.4 km/h 62% 0 mm
16:54 25.8 °C 17.7 °C 1007.7 hPa Calm   6.4 km/h 61% 0 mm
16:59 26 °C 17.6 °C 1007.7 hPa West 3.2 km/h 4.8 km/h 60% 0 mm
17:04 26.3 °C 17.9 °C 1007.7 hPa WSW 9.7 km/h 9.7 km/h 60% 0 mm
17:09 26.2 °C 17.8 °C 1007.7 hPa West 4.8 km/h 11.3 km/h 60% 0 mm
17:14 26.2 °C 17.8 °C 1007.7 hPa WSW 6.4 km/h 11.3 km/h 60% 0 mm
17:19 25.9 °C 17.8 °C 1007.7 hPa WSW 4.8 km/h 11.3 km/h 61% 0 mm
17:24 26.3 °C 18.2 °C 1007.7 hPa West 4.8 km/h 11.3 km/h 61% 0 mm
17:29 26.2 °C 17.8 °C 1008 hPa West 4.8 km/h 9.7 km/h 60% 0 mm
17:34 26.2 °C 17.8 °C 1007.7 hPa WSW 3.2 km/h 6.4 km/h 60% 0 mm
17:39 26.4 °C 18.1 °C 1007.7 hPa WSW 4.8 km/h 9.7 km/h 60% 0 mm
17:44 26.2 °C 17.8 °C 1007.7 hPa West 4.8 km/h 11.3 km/h 60% 0 mm
17:49 26.1 °C 17.7 °C 1007.7 hPa WSW 8 km/h 9.7 km/h 60% 0 mm
17:54 25.8 °C 17.7 °C 1007.7 hPa SW 4.8 km/h 11.3 km/h 61% 0 mm
17:59 25.3 °C 17.5 °C 1007.7 hPa SW 9.7 km/h 11.3 km/h 62% 0 mm
18:04 25.1 °C 17.6 °C 1007.7 hPa SSW 3.2 km/h 9.7 km/h 63% 0 mm
18:09 25 °C 17.4 °C 1007.7 hPa SW 4.8 km/h 9.7 km/h 63% 0 mm
18:14 24.9 °C 17.3 °C 1007.7 hPa SW 3.2 km/h 6.4 km/h 63% 0 mm
18:19 24.7 °C 17.4 °C 1007.7 hPa SW 4.8 km/h 8 km/h 64% 0 mm
18:24 24.4 °C 17.4 °C 1007.7 hPa SW 3.2 km/h 8 km/h 65% 0 mm
18:29 24.2 °C 17.4 °C 1008 hPa SW 3.2 km/h 11.3 km/h 66% 0 mm
18:34 24.1 °C 17.3 °C 1008 hPa SW 3.2 km/h 11.3 km/h 66% 0 mm
18:39 23.9 °C 17.4 °C 1008 hPa SW 4.8 km/h 9.7 km/h 67% 0 mm
18:44 23.7 °C 17.2 °C 1008 hPa SW 4.8 km/h 8 km/h 67% 0 mm
18:49 23.5 °C 17.5 °C 1008 hPa SW 3.2 km/h 6.4 km/h 69% 0 mm
18:54 23.3 °C 17.1 °C 1008 hPa SW 4.8 km/h 8 km/h 68% 0 mm
18:59 23.1 °C 17.1 °C 1008 hPa SW 4.8 km/h 9.7 km/h 69% 0 mm
19:04 22.8 °C 17.1 °C 1008 hPa WSW 3.2 km/h 8 km/h 70% 0 mm
19:09 22.7 °C 16.9 °C 1008 hPa WSW 4.8 km/h 6.4 km/h 70% 0 mm
19:14 22.4 °C 16.9 °C 1008 hPa WSW 1.6 km/h 8 km/h 71% 0 mm
19:19 22.2 °C 16.9 °C 1008 hPa SW 3.2 km/h 8 km/h 72% 0 mm
19:24 22.1 °C 16.8 °C 1008 hPa SW 3.2 km/h 6.4 km/h 72% 0 mm
19:29 21.9 °C 16.9 °C 1008.4 hPa SW 1.6 km/h 4.8 km/h 73% 0 mm
19:34 21.8 °C 16.7 °C 1008.4 hPa SW 1.6 km/h 4.8 km/h 73% 0 mm
19:39 21.7 °C 16.8 °C 1008.4 hPa Calm   3.2 km/h 74% 0 mm
19:44 21.6 °C 16.7 °C 1008.4 hPa Calm   3.2 km/h 74% 0 mm
19:49 21.6 °C 16.7 °C 1008.4 hPa Calm   1.6 km/h 74% 0 mm
19:54 21.3 °C 16.7 °C 1008.4 hPa Calm     75% 0 mm
19:59 21.1 °C 16.7 °C 1008.4 hPa Calm     76% 0 mm
20:04 21 °C 16.6 °C 1008.4 hPa Calm     76% 0 mm
20:09 21.1 °C 16.7 °C 1008.4 hPa Calm     76% 0 mm
20:14 20.7 °C 16.6 °C 1008.7 hPa Calm     77% 0 mm
20:19 20.6 °C 16.4 °C 1008.7 hPa Calm     77% 0 mm
20:24 20.6 °C 16.4 °C 1008.7 hPa Calm     77% 0 mm
20:29 20.3 °C 16.4 °C 1008.7 hPa Calm     78% 0 mm
20:34 20.3 °C 16.3 °C 1008.7 hPa Calm     78% 0 mm
20:39 20.2 °C 16.4 °C 1008.7 hPa Calm     79% 0 mm
20:44 20.2 °C 16.6 °C 1008.7 hPa Calm     80% 0 mm
20:49 20.2 °C 16.4 °C 1008.7 hPa Calm     79% 0 mm
20:54 20.2 °C 16.4 °C 1008.7 hPa Calm     79% 0 mm
20:59 20.2 °C 16.4 °C 1008.7 hPa Calm     79% 0 mm
21:04 20.1 °C 16.3 °C 1008.7 hPa Calm     79% 0 mm
21:09 19.9 °C 16.4 °C 1008.7 hPa Calm     80% 0 mm
21:14 19.8 °C 16.3 °C 1008.7 hPa Calm     80% 0 mm
21:19 19.9 °C 16.3 °C 1008.7 hPa Calm     80% 0 mm
21:29 19.7 °C 16.1 °C 1009 hPa Calm     80% 0 mm
21:34 19.6 °C 16.2 °C 1009 hPa Calm     81% 0 mm
21:39 19.4 °C 16.1 °C 1008.7 hPa Calm     81% 0 mm
21:44 19.4 °C 16.1 °C 1008.7 hPa Calm     81% 0 mm
21:49 19.4 °C 16.1 °C 1008.7 hPa Calm     81% 0 mm
21:54 19.3 °C 16.1 °C 1008.7 hPa Calm     82% 0 mm
21:59 19.2 °C 16.1 °C 1008.7 hPa Calm     82% 0 mm
22:04 19.2 °C 16.2 °C 1008.7 hPa Calm     83% 0 mm
22:09 19.1 °C 15.9 °C 1008.7 hPa Calm     82% 0 mm
22:14 19.1 °C 16.1 °C 1008.7 hPa Calm     83% 0 mm
22:19 19 °C 16.1 °C 1008.7 hPa Calm     83% 0 mm
22:24 18.9 °C 16 °C 1008.7 hPa Calm     83% 0 mm
22:29 18.8 °C 15.9 °C 1008.7 hPa Calm     83% 0 mm
22:34 18.8 °C 15.8 °C 1008.7 hPa Calm     83% 0 mm
22:39 18.7 °C 15.9 °C 1008.7 hPa Calm     84% 0 mm
22:44 18.7 °C 15.9 °C 1008.7 hPa Calm     84% 0 mm
22:49 18.7 °C 15.9 °C 1008.7 hPa Calm     84% 0 mm
22:54 18.7 °C 15.9 °C 1008.7 hPa Calm     84% 0 mm
22:59 18.7 °C 15.9 °C 1008.7 hPa Calm     84% 0 mm
23:04 18.7 °C 15.9 °C 1008.7 hPa Calm     84% 0 mm
23:09 18.6 °C 15.8 °C 1008.7 hPa Calm     84% 0 mm
23:15 18.5 °C 15.7 °C 1008.7 hPa Calm     84% 0 mm
23:24 18.3 °C 15.6 °C 1008.7 hPa Calm     84% 0 mm
23:29 18.4 °C 15.8 °C 1008.7 hPa Calm     85% 0 mm
23:34 18.3 °C 15.7 °C 1008.7 hPa Calm     85% 0 mm
23:39 18.3 °C 15.8 °C 1008.7 hPa Calm     85% 0 mm
23:44 18.3 °C 15.8 °C 1008.7 hPa Calm     85% 0 mm
23:49 18.3 °C 15.9 °C 1008.4 hPa Calm     86% 0 mm
23:54 18.4 °C 16 °C 1008.4 hPa Calm     86% 0 mm
23:59 18.4 °C 16.1 °C 1008.7 hPa Calm     86% 0 mm
Buffalo, New York, USA
Compliments of Weather Underground - 2.5 mb